Beechmont, Kentucky
Current Conditions -  °F | °C
As of 9:15 AM on Wednesday 22 Oct 2014 (Local Time) from K2I0 Reporting Station
Clear Clear  
Wind Chill: 51°   Ceiling: Unl
Heat Index: 51°   Visibility: 10mi
Dew Point: 46°   Wind: 7mph
Humidity: 85%   Direction: 80°E
Pressure: 30.31"   Gusts: NA
Location:  37.17°N, 87.04°W
Report Text: K2I0 221415Z AUTO 08006KT 10SM CLR 10/08 A3031 RMK AO2 T01030078
Loading
Personal Weather Stations






























Interactive Weather Map New forecast layout! Learn more

10-Day Weather Forecast

Advertisements
Track Severe Weather on mobile